Anatone, WA

12:00 AM PST on December 08, 2016 (GMT -0800)
Montgomery Ridge Road | | Change Station

Elev 3300 ft 46.12 °N, 117.01 °W | Updated 17 seconds ago

Clear
Clear
10.1 °F
Feels Like 1 °F
N
5.1
Wind Variable Wind from SSE
Gusts 5.1 mph

Today
High -- | Low -- °F
--% Chance of Precip.
Yesterday
High -- | Low -- °F
Precip. -- in
Pressure 30.46 in
Visibility 10.0 miles
Clouds Clear
Windchill 1 °F
Dew Point 6 °F
Humidity 85%
Rainfall 0.00 in
Snow Depth Not available.
7:18 AM 4:02 PM
First Quarter, 61% visible
METAR KPUW 080753Z AUTO 10010KT 10SM CLR M08/M12 A3034 RMK AO2 SLP315 T10831122 410391117
Pressure 30.46 in
Visibility 10.0 miles
Clouds Clear
Windchill 1 °F
Dew Point 6 °F
Humidity 85%
Rainfall 0.00 in
Snow Depth Not available.
7:18 AM 4:02 PM
First Quarter, 61% visible
METAR KPUW 080753Z AUTO 10010KT 10SM CLR M08/M12 A3034 RMK AO2 SLP315 T10831122 410391117

10-Day Weather Forecast

Almanac

Astronomy

Dec. 08, 2016 Rise Set
Actual Time
Civil Twilight
Nautical Twilight
Astronomical Twilight
Moon
Length of Visible Light
Length of Day
Tomorrow will be .
, % of the Moon is Illuminated

Today's Extremes

State Highs State Lows

Community

WunderPhotos

Upload Photos

1,956,259 photos uploaded!

WunderBlog® & News

Nearby

Air Quality

  Air Quality AQ Index Pollutant
Not available.

Snow Depth

Station Depth Elevation

Earthquake Activity

City Distance Mag. Time & Date
Minimum magnitude displayed is 2.5.

Coastal Water Temperatures

Place Temperature

Stations

Nearby Weather Stations

Station Location Temp. Windchill Dew Point Humidity Wind Precip. Elev Updated Type
                   

Watches & Warnings

There are currently no watches in effect.